createdAt,value
2019-04-21T00:01:34.671Z,41.39
2019-04-21T00:04:11.331Z,44.53
2019-04-21T00:06:55.277Z,44.26
2019-04-21T00:09:31.219Z,45.33
2019-04-21T00:11:55.633Z,46.20
2019-04-21T00:14:21.992Z,45.31
2019-04-21T00:16:55.231Z,44.90
2019-04-21T00:19:28.463Z,45.80
2019-04-21T00:22:08.587Z,47.04
2019-04-21T00:24:46.934Z,47.04
2019-04-21T00:27:21.416Z,46.40
2019-04-21T00:29:51.816Z,46.96
2019-04-21T00:32:21.961Z,47.49
2019-04-21T00:34:50.403Z,47.47
2019-04-21T00:37:24.127Z,47.90
2019-04-21T00:40:09.229Z,48.38
2019-04-21T00:42:40.360Z,48.20
2019-04-21T00:45:09.132Z,47.23
2019-04-21T00:47:40.272Z,47.44
2019-04-21T00:50:17.919Z,46.97
2019-04-21T00:53:00.447Z,46.97
2019-04-21T00:55:38.716Z,47.69
2019-04-21T00:58:13.097Z,47.08
2019-04-21T01:00:38.517Z,47.48
2019-04-21T01:03:14.221Z,48.01
2019-04-21T01:05:51.819Z,47.96
2019-04-21T01:08:19.848Z,48.57
2019-04-21T01:10:43.957Z,48.27
2019-04-21T01:13:23.512Z,49.06
2019-04-21T01:15:59.763Z,48.17
2019-04-21T01:18:31.512Z,48.98
2019-04-21T01:20:40.980Z,49.56
2019-04-21T01:23:12.695Z,48.38
2019-04-21T01:25:55.887Z,48.29
2019-04-21T01:28:36.553Z,48.54
2019-04-21T01:31:11.114Z,47.68
2019-04-21T01:33:48.639Z,49.10
2019-04-21T01:36:14.014Z,47.51
2019-04-21T01:38:59.090Z,47.31
2019-04-21T01:41:28.179Z,46.53
2019-04-21T01:43:53.487Z,46.38
2019-04-21T01:46:20.690Z,47.99
2019-04-21T01:48:52.554Z,48.91
2019-04-21T01:51:26.026Z,47.96
2019-04-21T01:54:09.376Z,49.81
2019-04-21T01:56:44.535Z,48.48
2019-04-21T01:59:09.000Z,49.06
2019-04-21T02:01:52.453Z,49.16
2019-04-21T02:04:36.383Z,49.01
2019-04-21T02:07:04.301Z,50.31
2019-04-21T02:09:35.650Z,49.18
2019-04-21T02:12:08.736Z,50.00
2019-04-21T02:14:45.836Z,50.48
2019-04-21T02:17:14.504Z,49.56
2019-04-21T02:19:41.250Z,48.40
2019-04-21T02:22:21.557Z,48.25
2019-04-21T02:24:56.763Z,49.16
2019-04-21T02:27:26.523Z,48.14
2019-04-21T02:30:00.130Z,50.80
2019-04-21T02:32:43.753Z,49.85
2019-04-21T02:35:24.644Z,50.23
2019-04-21T02:40:21.570Z,49.61
2019-04-21T02:43:03.272Z,49.30
2019-04-21T02:45:22.909Z,49.44
2019-04-21T02:50:33.977Z,49.37
2019-04-21T02:53:05.234Z,49.27
2019-04-21T02:58:29.107Z,47.94
2019-04-21T03:01:18.745Z,47.79
2019-04-21T03:03:54.884Z,49.27
2019-04-21T03:06:53.806Z,49.83
2019-04-21T03:09:18.515Z,49.30
2019-04-21T03:11:53.429Z,49.14
2019-04-21T03:14:30.735Z,49.78
2019-04-21T03:16:47.127Z,50.24
2019-04-21T03:19:36.460Z,48.80
2019-04-21T03:22:07.177Z,49.17
2019-04-21T03:24:46.307Z,50.19
2019-04-21T03:27:21.009Z,49.81
2019-04-21T03:29:37.187Z,52.22
2019-04-21T03:35:15.210Z,53.52
2019-04-21T03:37:23.831Z,52.24
2019-04-21T03:39:56.833Z,51.75
2019-04-21T03:42:27.045Z,53.82
2019-04-21T03:47:30.805Z,54.55
2019-04-21T03:50:14.131Z,54.65
2019-04-21T04:06:11.463Z,52.84
2019-04-21T04:11:29.923Z,52.87
2019-04-21T04:14:04.061Z,52.81
2019-04-21T04:16:31.215Z,52.65
2019-04-21T04:24:07.467Z,53.22
2019-04-21T04:26:39.466Z,52.41
2019-04-21T04:29:15.520Z,52.19
2019-04-21T04:31:49.861Z,52.34
2019-04-21T04:39:36.734Z,50.89
2019-04-21T04:42:17.494Z,50.87
2019-04-21T04:47:20.356Z,50.93
2019-04-21T04:49:51.577Z,50.75
2019-04-21T04:57:39.580Z,50.14
2019-04-21T05:00:00.519Z,50.72
2019-04-21T05:02:35.600Z,51.25
2019-04-21T05:10:50.927Z,49.28
2019-04-21T05:12:38.833Z,50.27
2019-04-21T05:15:16.239Z,49.61
2019-04-21T05:20:17.086Z,49.32
2019-04-21T05:22:42.699Z,49.13
2019-04-21T05:25:08.319Z,50.73
2019-04-21T05:27:44.895Z,50.99
2019-04-21T05:30:28.422Z,50.17
2019-04-21T05:33:00.293Z,48.59
2019-04-21T05:35:46.276Z,47.95
2019-04-21T05:38:17.405Z,48.06
2019-04-21T05:40:50.066Z,47.61
2019-04-21T05:43:27.982Z,47.78
2019-04-21T05:46:13.740Z,48.97
2019-04-21T05:48:36.405Z,46.49
2019-04-21T05:51:06.061Z,48.20
2019-04-21T05:53:39.334Z,47.86
2019-04-21T05:56:16.241Z,45.70
2019-04-21T05:58:43.541Z,46.29
2019-04-21T06:01:31.537Z,46.21
2019-04-21T06:03:57.564Z,45.22
2019-04-21T06:06:34.098Z,44.50
2019-04-21T06:08:59.553Z,45.59
2019-04-21T06:11:33.820Z,46.42
2019-04-21T06:14:08.116Z,44.86
2019-04-21T06:16:45.145Z,44.87
2019-04-21T06:19:15.066Z,44.34
2019-04-21T06:21:40.566Z,44.97
2019-04-21T06:24:15.970Z,44.84
2019-04-21T06:26:59.214Z,45.16
2019-04-21T06:29:24.004Z,44.65
2019-04-21T06:34:40.760Z,43.14
2019-04-21T06:37:31.681Z,41.83
2019-04-21T06:39:44.819Z,41.95
2019-04-21T06:42:09.776Z,41.22
2019-04-21T06:44:48.341Z,40.56
2019-04-21T06:47:24.474Z,39.99
2019-04-21T06:49:45.642Z,40.49
2019-04-21T06:52:44.680Z,40.68
2019-04-21T06:55:00.098Z,39.63
2019-04-21T06:57:29.629Z,40.52
2019-04-21T06:59:58.713Z,39.49
2019-04-21T07:05:20.438Z,40.24
2019-04-21T07:07:35.543Z,39.69
2019-04-21T07:10:10.369Z,38.14
2019-04-21T07:12:39.411Z,36.89
2019-04-21T07:15:13.315Z,37.86
2019-04-21T07:17:46.975Z,37.65
2019-04-21T07:20:17.214Z,37.35
2019-04-21T07:22:57.024Z,37.36
2019-04-21T07:25:29.806Z,37.49
2019-04-21T07:27:59.247Z,38.56
2019-04-21T07:30:35.140Z,37.00
2019-04-21T07:33:19.160Z,37.00
2019-04-21T07:35:37.337Z,36.03
2019-04-21T07:38:15.040Z,36.00
2019-04-21T07:40:38.965Z,36.50
2019-04-21T07:43:15.219Z,36.77
2019-04-21T07:45:40.990Z,35.35
2019-04-21T07:48:29.555Z,35.35
2019-04-21T07:51:04.042Z,34.73
2019-04-21T07:53:52.553Z,34.73
2019-04-21T07:55:59.649Z,35.96
2019-04-21T07:58:54.097Z,35.96
2019-04-21T08:03:58.170Z,35.44
2019-04-21T08:06:27.068Z,35.01
2019-04-21T08:08:55.465Z,34.55
2019-04-21T08:11:25.428Z,34.79
2019-04-21T08:14:04.588Z,34.79
2019-04-21T08:16:42.066Z,32.77
2019-04-21T08:19:09.643Z,32.77
2019-04-21T08:21:43.010Z,32.63
2019-04-21T08:24:14.443Z,32.65
2019-04-21T08:26:51.607Z,31.56
2019-04-21T08:29:25.804Z,31.73
2019-04-21T08:32:00.753Z,29.98
2019-04-21T08:34:28.480Z,30.62
2019-04-21T08:36:57.263Z,30.60
2019-04-21T08:39:32.930Z,30.60
2019-04-21T08:42:06.359Z,30.60
2019-04-21T08:44:44.958Z,30.22
2019-04-21T08:47:07.476Z,29.58
2019-04-21T08:49:41.452Z,32.24
2019-04-21T08:52:26.021Z,28.83
2019-04-21T08:54:52.648Z,29.55
2019-04-21T08:57:32.197Z,29.60
2019-04-21T09:00:20.040Z,29.40
2019-04-21T09:03:02.453Z,29.34
2019-04-21T09:05:31.133Z,28.17
2019-04-21T09:08:03.797Z,26.79
2019-04-21T09:10:37.823Z,27.01
2019-04-21T09:13:04.288Z,29.47
2019-04-21T09:15:41.693Z,28.33
2019-04-21T09:18:08.481Z,30.77
2019-04-21T09:20:52.202Z,27.20
2019-04-21T09:23:19.263Z,26.39
2019-04-21T09:25:57.393Z,26.36
2019-04-21T09:28:22.665Z,25.82
2019-04-21T09:30:48.915Z,26.77
2019-04-21T09:33:14.071Z,27.00
2019-04-21T09:35:49.153Z,26.74
2019-04-21T09:38:27.617Z,26.28
2019-04-21T09:40:54.052Z,25.80
2019-04-21T09:43:30.808Z,25.73
2019-04-21T09:45:56.718Z,25.17
2019-04-21T09:48:29.793Z,26.35
2019-04-21T09:51:00.409Z,23.77
2019-04-21T09:53:37.641Z,25.27
2019-04-21T09:56:07.956Z,26.75
2019-04-21T09:58:40.752Z,24.39
2019-04-21T10:01:19.718Z,24.34
2019-04-21T10:03:48.242Z,23.89
2019-04-21T10:06:17.324Z,24.11
2019-04-21T10:08:50.443Z,23.25
2019-04-21T10:11:21.001Z,23.54
2019-04-21T10:13:53.020Z,23.12
2019-04-21T10:16:26.099Z,21.91
2019-04-21T10:18:56.923Z,22.44
2019-04-21T10:21:29.290Z,22.23
2019-04-21T10:24:00.343Z,20.32
2019-04-21T10:26:31.172Z,22.05
2019-04-21T10:29:08.545Z,20.67
2019-04-21T10:31:34.847Z,21.97
2019-04-21T10:34:05.623Z,21.14
2019-04-21T10:36:37.229Z,20.32
2019-04-21T10:39:09.300Z,17.27
2019-04-21T10:41:41.424Z,18.22
2019-04-21T10:44:13.535Z,17.06
2019-04-21T10:46:47.350Z,18.02
2019-04-21T10:49:18.899Z,18.76
2019-04-21T10:51:50.796Z,17.42
2019-04-21T10:54:21.905Z,18.47
2019-04-21T10:56:52.714Z,17.41
2019-04-21T10:59:25.000Z,18.08
2019-04-21T11:01:56.855Z,17.72
2019-04-21T11:04:34.231Z,17.29
2019-04-21T11:07:10.774Z,17.32
2019-04-21T11:09:38.025Z,16.84
2019-04-21T11:12:10.159Z,18.01
2019-04-21T11:14:41.219Z,17.79
2019-04-21T11:17:12.322Z,17.95
2019-04-21T11:19:43.247Z,18.26
2019-04-21T11:22:14.727Z,16.90
2019-04-21T11:24:46.933Z,19.42
2019-04-21T11:27:19.134Z,19.30
2019-04-21T11:29:50.027Z,18.46
2019-04-21T11:32:21.208Z,18.70
2019-04-21T11:34:52.089Z,17.19
2019-04-21T11:37:26.036Z,17.82
2019-04-21T11:40:03.283Z,19.15
2019-04-21T11:42:31.549Z,18.39
2019-04-21T11:45:04.250Z,17.83
2019-04-21T11:47:38.437Z,17.79
2019-04-21T11:50:10.922Z,18.92
2019-04-21T11:52:43.181Z,17.24
2019-04-21T11:55:14.356Z,18.77
2019-04-21T11:57:49.467Z,19.44
2019-04-21T12:00:17.992Z,18.39
2019-04-21T12:02:48.765Z,18.30
2019-04-21T12:05:19.564Z,19.11
2019-04-21T12:07:51.334Z,17.91
2019-04-21T12:10:22.221Z,16.84
2019-04-21T12:12:53.212Z,19.45
2019-04-21T12:15:25.065Z,16.43
2019-04-21T12:17:56.466Z,19.01
2019-04-21T12:20:28.596Z,17.66
2019-04-21T12:23:00.382Z,17.90
2019-04-21T12:25:33.374Z,17.94
2019-04-21T12:28:05.774Z,18.28
2019-04-21T12:30:37.759Z,16.89
2019-04-21T12:33:12.075Z,17.57
2019-04-21T12:35:43.869Z,15.78
2019-04-21T12:38:14.794Z,16.63
2019-04-21T12:40:46.544Z,17.04
2019-04-21T12:43:18.785Z,17.50
2019-04-21T12:45:49.647Z,18.76
2019-04-21T12:48:20.431Z,17.25
2019-04-21T12:50:51.959Z,16.05
2019-04-21T12:53:23.553Z,16.48
2019-04-21T12:55:55.735Z,15.84
2019-04-21T12:58:26.753Z,17.87
2019-04-21T13:00:58.831Z,17.49
2019-04-21T13:03:30.503Z,17.00
2019-04-21T13:06:01.513Z,17.16
2019-04-21T13:08:41.503Z,16.29
2019-04-21T13:11:06.421Z,15.67
2019-04-21T13:13:37.753Z,16.17
2019-04-21T13:16:09.646Z,15.66
2019-04-21T13:18:41.696Z,15.19
2019-04-21T13:21:13.941Z,15.12
2019-04-21T13:23:45.200Z,15.27
2019-04-21T13:26:27.170Z,14.99
2019-04-21T13:28:50.005Z,14.20
2019-04-21T13:31:22.283Z,13.99
2019-04-21T13:33:53.367Z,13.78
2019-04-21T13:36:25.561Z,14.61
2019-04-21T13:39:49.105Z,14.39
2019-04-21T13:41:59.922Z,16.31
2019-04-21T13:44:21.338Z,15.06
2019-04-21T13:46:52.561Z,13.85
2019-04-21T13:49:23.520Z,15.95
2019-04-21T13:51:54.419Z,13.76
2019-04-21T13:54:25.518Z,14.60
2019-04-21T13:56:56.610Z,15.52
2019-04-21T13:59:28.666Z,14.58
2019-04-21T14:02:00.501Z,13.72
2019-04-21T14:04:31.529Z,14.47
2019-04-21T14:07:02.605Z,14.76
2019-04-21T14:09:40.315Z,14.48
2019-04-21T14:12:07.486Z,13.98
2019-04-21T14:14:38.700Z,13.00
2019-04-21T14:17:10.787Z,14.95
2019-04-21T14:19:41.686Z,14.11
2019-04-21T14:22:14.400Z,14.67
2019-04-21T14:24:45.836Z,14.55
2019-04-21T14:27:16.658Z,12.96
2019-04-21T14:29:47.434Z,13.56
2019-04-21T14:32:18.332Z,13.04
2019-04-21T14:34:50.694Z,13.42
2019-04-21T14:37:22.598Z,13.02
2019-04-21T14:40:01.804Z,12.43
2019-04-21T14:42:26.519Z,12.12
2019-04-21T14:44:58.609Z,13.22
2019-04-21T14:47:44.272Z,11.42
2019-04-21T14:50:34.433Z,12.02
2019-04-21T14:53:11.759Z,11.92
2019-04-21T14:55:45.745Z,12.00
2019-04-21T14:58:17.215Z,12.83
2019-04-21T15:00:55.584Z,12.40
2019-04-21T15:03:27.832Z,12.93
2019-04-21T15:05:58.737Z,13.66
2019-04-21T15:08:29.509Z,13.17
2019-04-21T15:11:01.100Z,12.75
2019-04-21T15:13:32.343Z,12.45
2019-04-21T15:16:04.740Z,11.38
2019-04-21T15:18:36.520Z,13.72
2019-04-21T15:21:08.851Z,13.40
2019-04-21T15:23:40.319Z,13.47
2019-04-21T15:26:12.298Z,13.75
2019-04-21T15:28:44.542Z,12.75
2019-04-21T15:31:23.901Z,14.02
2019-04-21T15:33:49.573Z,14.50
2019-04-21T15:36:20.968Z,13.50
2019-04-21T15:38:52.027Z,13.84
2019-04-21T15:41:23.015Z,13.32
2019-04-21T15:43:54.384Z,13.32
2019-04-21T15:46:25.173Z,13.48
2019-04-21T15:48:57.117Z,12.81
2019-04-21T15:51:29.528Z,13.52
2019-04-21T15:54:00.934Z,14.26
2019-04-21T15:56:49.100Z,15.76
2019-04-21T15:59:24.623Z,15.92
2019-04-21T16:01:58.537Z,17.40
2019-04-21T16:04:30.675Z,17.66
2019-04-21T16:07:01.700Z,18.10
2019-04-21T16:09:34.367Z,17.72
2019-04-21T16:12:05.204Z,18.26
2019-04-21T16:14:36.501Z,19.22
2019-04-21T16:17:07.607Z,19.22
2019-04-21T16:19:38.475Z,19.21
2019-04-21T16:22:10.699Z,19.66
2019-04-21T16:24:42.029Z,19.93
2019-04-21T16:27:12.931Z,21.14
2019-04-21T16:29:43.902Z,19.68
2019-04-21T16:32:18.417Z,21.60
2019-04-21T16:34:54.239Z,19.41
2019-04-21T16:37:21.467Z,19.47
2019-04-21T16:39:53.660Z,20.19
2019-04-21T16:42:24.580Z,20.35
2019-04-21T16:44:56.708Z,20.01
2019-04-21T16:47:28.263Z,19.70
2019-04-21T16:49:59.143Z,20.15
2019-04-21T16:52:32.164Z,20.51
2019-04-21T16:55:08.726Z,20.04
2019-04-21T16:57:44.277Z,20.22
2019-04-21T17:00:29.095Z,20.15
2019-04-21T17:02:50.528Z,21.12
2019-04-21T17:05:22.403Z,20.71
2019-04-21T17:07:53.323Z,21.62
2019-04-21T17:10:24.567Z,22.57
2019-04-21T17:12:56.029Z,21.46
2019-04-21T17:15:46.141Z,21.47
2019-04-21T17:18:14.593Z,22.06
2019-04-21T17:20:42.034Z,21.74
2019-04-21T17:23:05.123Z,21.57
2019-04-21T17:25:37.023Z,21.39
2019-04-21T17:28:09.831Z,21.56
2019-04-21T17:30:40.616Z,21.74
2019-04-21T17:33:16.161Z,23.57
2019-04-21T17:35:44.906Z,23.74
2019-04-21T17:38:16.333Z,24.78
2019-04-21T17:40:47.582Z,25.60
2019-04-21T17:43:19.725Z,25.06
2019-04-21T17:45:51.080Z,25.06
2019-04-21T17:48:23.295Z,24.93
2019-04-21T17:50:56.134Z,24.51
2019-04-21T17:53:38.204Z,24.31
2019-04-21T17:56:23.308Z,24.13
2019-04-21T17:58:58.180Z,23.99
2019-04-21T18:01:35.603Z,24.11
2019-04-21T18:04:12.318Z,24.26
2019-04-21T18:06:40.730Z,24.30
2019-04-21T18:09:21.868Z,23.53
2019-04-21T18:11:46.254Z,23.38
2019-04-21T18:14:01.711Z,23.36
2019-04-21T18:16:39.252Z,23.78
2019-04-21T18:19:06.725Z,24.04
2019-04-21T18:21:59.865Z,24.59
2019-04-21T18:24:40.900Z,23.36
2019-04-21T18:27:05.438Z,23.70
2019-04-21T18:29:34.898Z,23.00
2019-04-21T18:32:06.344Z,23.11
2019-04-21T18:34:52.364Z,23.70
2019-04-21T18:37:26.246Z,23.27
2019-04-21T18:40:02.689Z,24.48
2019-04-21T18:42:49.243Z,24.12
2019-04-21T18:48:21.914Z,23.13
2019-04-21T18:50:58.446Z,22.88
2019-04-21T18:53:41.530Z,22.80
2019-04-21T18:56:03.944Z,23.57
2019-04-21T18:58:30.719Z,23.41
2019-04-21T19:01:07.333Z,24.54
2019-04-21T19:03:41.062Z,24.11
2019-04-21T19:06:12.849Z,24.81
2019-04-21T19:08:59.553Z,25.21
2019-04-21T19:11:29.278Z,26.08
2019-04-21T19:14:19.776Z,26.32
2019-04-21T19:19:35.396Z,27.26
2019-04-21T19:21:52.508Z,28.51
2019-04-21T19:24:24.255Z,27.71
2019-04-21T19:27:01.697Z,27.43
2019-04-21T19:32:13.709Z,28.35
2019-04-21T19:34:19.768Z,28.60
2019-04-21T19:36:51.004Z,28.88
2019-04-21T19:39:37.883Z,28.88
2019-04-21T19:42:00.493Z,30.41
2019-04-21T19:44:43.576Z,30.41
2019-04-21T19:47:17.207Z,31.31
2019-04-21T19:49:51.381Z,31.17
2019-04-21T19:52:07.471Z,31.05
2019-04-21T19:54:38.159Z,31.05
2019-04-21T19:57:07.056Z,32.92
2019-04-21T19:59:44.624Z,32.32
2019-04-21T20:02:12.188Z,33.66
2019-04-21T20:04:51.471Z,33.66
2019-04-21T20:07:28.982Z,31.69
2019-04-21T20:10:09.244Z,31.69
2019-04-21T20:12:40.143Z,34.48
2019-04-21T20:15:23.254Z,32.82
2019-04-21T20:17:44.960Z,32.92
2019-04-21T20:20:00.454Z,32.92
2019-04-21T20:22:36.825Z,37.38
2019-04-21T20:25:11.611Z,31.07
2019-04-21T20:27:49.397Z,37.37
2019-04-21T20:30:32.764Z,33.67
2019-04-21T20:33:14.150Z,36.53
2019-04-21T20:35:44.862Z,36.53
2019-04-21T20:38:04.800Z,36.01
2019-04-21T20:40:30.880Z,37.22
2019-04-21T20:43:22.410Z,33.14
2019-04-21T20:45:45.553Z,36.79
2019-04-21T20:48:15.309Z,37.48
2019-04-21T20:50:56.212Z,39.00
2019-04-21T20:53:25.128Z,41.96
2019-04-21T20:55:52.765Z,39.18
2019-04-21T20:58:28.460Z,38.95
2019-04-21T21:01:20.231Z,37.71
2019-04-21T21:03:36.015Z,40.30
2019-04-21T21:06:03.762Z,41.38
2019-04-21T21:08:40.081Z,39.76
2019-04-21T21:11:07.924Z,39.41
2019-04-21T21:13:47.876Z,41.44
2019-04-21T21:16:20.040Z,39.61
2019-04-21T21:19:03.714Z,40.45
2019-04-21T21:21:20.666Z,43.32
2019-04-21T21:23:53.073Z,40.41
2019-04-21T21:26:31.254Z,44.20
2019-04-21T21:28:56.308Z,42.19
2019-04-21T21:31:38.721Z,39.91
2019-04-21T21:34:11.877Z,39.91
2019-04-21T21:36:41.812Z,39.50
2019-04-21T21:39:12.836Z,41.89
2019-04-21T21:41:34.489Z,44.20
2019-04-21T21:44:08.785Z,42.89
2019-04-21T21:46:48.289Z,41.90
2019-04-21T21:49:26.127Z,43.74
2019-04-21T21:51:52.878Z,42.95
2019-04-21T21:54:11.770Z,43.61
2019-04-21T21:56:42.738Z,43.37
2019-04-21T21:59:20.131Z,43.54
2019-04-21T22:01:50.717Z,43.36
2019-04-21T22:04:26.321Z,44.74
2019-04-21T22:06:58.237Z,44.85
2019-04-21T22:09:24.433Z,44.63
2019-04-21T22:11:59.361Z,44.91
2019-04-21T22:14:34.036Z,45.14
2019-04-21T22:17:20.744Z,44.36
2019-04-21T22:19:59.896Z,44.29
2019-04-21T22:22:21.496Z,45.96
2019-04-21T22:24:50.681Z,46.50
2019-04-21T22:27:12.893Z,45.46
2019-04-21T22:29:49.239Z,45.63
2019-04-21T22:32:21.556Z,46.35
2019-04-21T22:34:54.845Z,46.16
2019-04-21T22:37:39.276Z,45.90
2019-04-21T22:40:09.629Z,46.30
2019-04-21T22:42:33.214Z,47.23
2019-04-21T22:45:00.708Z,47.02
2019-04-21T22:47:34.552Z,46.65
2019-04-21T22:50:06.451Z,46.88
2019-04-21T22:52:37.526Z,46.69
2019-04-21T22:55:16.725Z,47.76
2019-04-21T22:57:47.855Z,48.15
2019-04-21T23:00:16.768Z,46.13
2019-04-21T23:02:47.387Z,45.59
2019-04-21T23:05:22.481Z,46.49
2019-04-21T23:07:57.676Z,46.82
2019-04-21T23:10:23.720Z,46.20
2019-04-21T23:12:59.544Z,47.14
2019-04-21T23:15:35.635Z,47.80
2019-04-21T23:18:22.061Z,48.88
2019-04-21T23:23:29.696Z,48.53
2019-04-21T23:25:53.285Z,48.49
2019-04-21T23:28:30.412Z,48.94
2019-04-21T23:31:03.615Z,48.82
2019-04-21T23:33:19.568Z,48.12
2019-04-21T23:35:49.534Z,47.43
2019-04-21T23:38:31.967Z,47.63
2019-04-21T23:40:58.618Z,47.63
2019-04-21T23:43:29.990Z,47.77
2019-04-21T23:46:01.673Z,48.18
2019-04-21T23:48:42.471Z,48.27
2019-04-21T23:51:15.718Z,46.73
2019-04-21T23:53:37.672Z,46.58
2019-04-21T23:56:08.859Z,46.85
2019-04-21T23:58:40.279Z,47.74
